Pontoise - Cormeilles-en-Vexin Airport

Airport
ICAO code: 
LFPT
IATA Code: 
POX
Summary
ICAO Region: 
EUR
Territory: 
Location: 
, Ile-de-France
Serving: 
Pontoise
Elevation: 
325 ft
Coordinates: 
Aerial View: 
49° 5' 47.929" N, 2° 2' 26.999" E
Metar
Observation
LFPT 240530Z AUTO 08003KT 6000 NSC M01/M02 Q1031
Station
Pontoise - Cormeilles-en-Vexin
Date/Time
2022-01-24 05:30:00
Wind direction
80°
Wind speed
03 kts
Lowest cloud amount
nil significant cloud
Temperature
-1°C
Dew point
-2°C
Humidity
92%
QNH
1031 hPa
Weather condition
n/a

Runways

Designator Length Width Surface Rops
12/30 1650 50 ASP Yes/Yes
5/23 1689 50 ASP Yes/Yes
Airport map: 
Aerial View: 

SKYbrary Partners:

Safety knowledge contributed by: